sensor_id;sensor_type;location;lat;lon;timestamp;pressure;altitude;pressure_sealevel;temperature;humidity
58686;BME280;44465;53.206;-6.106;2023-03-11T00:00:26;100653.13;;;20.16;44.51
58686;BME280;44465;53.206;-6.106;2023-03-11T00:02:54;100670.75;;;20.20;44.33
58686;BME280;44465;53.206;-6.106;2023-03-11T00:05:21;100703.13;;;20.32;44.52
58686;BME280;44465;53.206;-6.106;2023-03-11T00:07:47;100699.75;;;20.28;44.87
58686;BME280;44465;53.206;-6.106;2023-03-11T00:10:18;100673.03;;;20.28;44.49
58686;BME280;44465;53.206;-6.106;2023-03-11T00:12:44;100629.81;;;20.02;44.46
58686;BME280;44465;53.206;-6.106;2023-03-11T00:15:10;100672.84;;;20.31;44.44
58686;BME280;44465;53.206;-6.106;2023-03-11T00:17:36;100603.59;;;19.93;44.41
58686;BME280;44465;53.206;-6.106;2023-03-11T00:20:03;100636.25;;;20.15;44.32
58686;BME280;44465;53.206;-6.106;2023-03-11T00:22:29;100631.06;;;20.12;44.40
58686;BME280;44465;53.206;-6.106;2023-03-11T00:24:54;100655.59;;;20.37;44.25
58686;BME280;44465;53.206;-6.106;2023-03-11T00:27:20;100640.94;;;20.28;44.08
58686;BME280;44465;53.206;-6.106;2023-03-11T00:29:45;100581.13;;;19.97;44.35
58686;BME280;44465;53.206;-6.106;2023-03-11T00:32:11;100613.19;;;20.13;44.37
58686;BME280;44465;53.206;-6.106;2023-03-11T00:34:36;100626.94;;;20.23;44.67
58686;BME280;44465;53.206;-6.106;2023-03-11T00:37:02;100606.22;;;20.10;44.51
58686;BME280;44465;53.206;-6.106;2023-03-11T00:39:29;100638.25;;;20.28;44.48
58686;BME280;44465;53.206;-6.106;2023-03-11T00:41:54;100596.97;;;20.00;44.56
58686;BME280;44465;53.206;-6.106;2023-03-11T00:44:21;100616.06;;;20.10;44.50
58686;BME280;44465;53.206;-6.106;2023-03-11T00:46:46;100625.03;;;20.09;44.23
58686;BME280;44465;53.206;-6.106;2023-03-11T00:49:12;100644.34;;;20.30;44.73
58686;BME280;44465;53.206;-6.106;2023-03-11T00:51:38;100630.72;;;20.19;44.45
58686;BME280;44465;53.206;-6.106;2023-03-11T00:54:03;100649.66;;;20.32;44.21
58686;BME280;44465;53.206;-6.106;2023-03-11T00:56:29;100586.53;;;19.95;44.51
58686;BME280;44465;53.206;-6.106;2023-03-11T00:58:55;100617.59;;;20.14;44.56
58686;BME280;44465;53.206;-6.106;2023-03-11T01:01:21;100585.97;;;19.89;44.44
58686;BME280;44465;53.206;-6.106;2023-03-11T01:03:47;100627.72;;;20.25;44.63
58686;BME280;44465;53.206;-6.106;2023-03-11T01:06:12;100586.13;;;20.03;44.53
58686;BME280;44465;53.206;-6.106;2023-03-11T01:08:38;100636.28;;;20.32;44.38
58686;BME280;44465;53.206;-6.106;2023-03-11T01:11:05;100634.44;;;20.32;44.29
58686;BME280;44465;53.206;-6.106;2023-03-11T01:13:31;100603.53;;;20.10;44.58
58686;BME280;44465;53.206;-6.106;2023-03-11T01:15:57;100636.28;;;20.32;44.52
58686;BME280;44465;53.206;-6.106;2023-03-11T01:18:24;100582.06;;;19.96;44.51
58686;BME280;44465;53.206;-6.106;2023-03-11T01:20:50;100628.50;;;20.27;44.53
58686;BME280;44465;53.206;-6.106;2023-03-11T01:23:17;100641.53;;;20.33;44.43
58686;BME280;44465;53.206;-6.106;2023-03-11T01:25:43;100571.53;;;19.93;44.51
58686;BME280;44465;53.206;-6.106;2023-03-11T01:28:10;100602.59;;;20.11;44.64
58686;BME280;44465;53.206;-6.106;2023-03-11T01:30:37;100616.16;;;20.24;44.28
58686;BME280;44465;53.206;-6.106;2023-03-11T01:33:06;100605.00;;;20.16;44.56
58686;BME280;44465;53.206;-6.106;2023-03-11T01:35:32;100615.13;;;20.27;44.39
58686;BME280;44465;53.206;-6.106;2023-03-11T01:37:58;100601.81;;;20.09;44.71
58686;BME280;44465;53.206;-6.106;2023-03-11T01:40:36;100606.06;;;20.13;44.34
58686;BME280;44465;53.206;-6.106;2023-03-11T01:48:30;100584.03;;;20.08;44.45
58686;BME280;44465;53.206;-6.106;2023-03-11T01:50:55;100583.53;;;20.02;44.51
58686;BME280;44465;53.206;-6.106;2023-03-11T01:53:22;100609.06;;;20.23;44.37
58686;BME280;44465;53.206;-6.106;2023-03-11T01:55:48;100593.53;;;20.14;44.47
58686;BME280;44465;53.206;-6.106;2023-03-11T01:58:17;100564.97;;;19.98;44.55
58686;BME280;44465;53.206;-6.106;2023-03-11T02:00:45;100596.94;;;20.18;44.49
58686;BME280;44465;53.206;-6.106;2023-03-11T02:03:20;100581.72;;;20.18;44.40
58686;BME280;44465;53.206;-6.106;2023-03-11T02:05:48;100568.63;;;20.13;44.33
58686;BME280;44465;53.206;-6.106;2023-03-11T02:08:15;100586.72;;;20.24;44.60
58686;BME280;44465;53.206;-6.106;2023-03-11T02:10:41;100554.03;;;20.03;44.38
58686;BME280;44465;53.206;-6.106;2023-03-11T02:13:09;100568.97;;;20.07;44.50
58686;BME280;44465;53.206;-6.106;2023-03-11T02:15:36;100577.75;;;20.09;44.39
58686;BME280;44465;53.206;-6.106;2023-03-11T02:18:05;100599.16;;;20.25;44.56
58686;BME280;44465;53.206;-6.106;2023-03-11T02:23:48;100582.94;;;20.12;44.44
58686;BME280;44465;53.206;-6.106;2023-03-11T02:26:16;100603.72;;;20.23;44.58
58686;BME280;44465;53.206;-6.106;2023-03-11T02:28:46;100549.50;;;19.88;44.43
58686;BME280;44465;53.206;-6.106;2023-03-11T02:31:13;100613.13;;;20.14;44.65
58686;BME280;44465;53.206;-6.106;2023-03-11T02:33:40;100583.44;;;20.03;44.67
58686;BME280;44465;53.206;-6.106;2023-03-11T02:38:56;100618.31;;;20.18;44.58
58686;BME280;44465;53.206;-6.106;2023-03-11T02:41:22;100554.38;;;19.79;44.61
58686;BME280;44465;53.206;-6.106;2023-03-11T02:43:48;100571.69;;;19.90;44.45
58686;BME280;44465;53.206;-6.106;2023-03-11T02:46:16;100620.75;;;20.22;44.47
58686;BME280;44465;53.206;-6.106;2023-03-11T02:48:43;100614.91;;;20.14;44.86
58686;BME280;44465;53.206;-6.106;2023-03-11T02:51:10;100582.06;;;19.96;44.69
58686;BME280;44465;53.206;-6.106;2023-03-11T02:53:39;100574.53;;;20.03;44.42
58686;BME280;44465;53.206;-6.106;2023-03-11T02:56:06;100592.78;;;20.12;44.55
58686;BME280;44465;53.206;-6.106;2023-03-11T02:58:33;100526.72;;;19.80;44.61
58686;BME280;44465;53.206;-6.106;2023-03-11T03:00:58;100533.47;;;19.88;44.51
58686;BME280;44465;53.206;-6.106;2023-03-11T03:03:24;100568.63;;;20.13;44.39
58686;BME280;44465;53.206;-6.106;2023-03-11T03:05:49;100572.88;;;20.18;44.53
58686;BME280;44465;53.206;-6.106;2023-03-11T03:08:15;100539.88;;;20.01;44.41
58686;BME280;44465;53.206;-6.106;2023-03-11T03:10:41;100567.53;;;20.18;44.60
58686;BME280;44465;53.206;-6.106;2023-03-11T03:13:06;100535.50;;;20.00;44.41
58686;BME280;44465;53.206;-6.106;2023-03-11T03:15:32;100504.31;;;19.83;44.37
58686;BME280;44465;53.206;-6.106;2023-03-11T03:17:59;100511.16;;;19.89;44.33
58686;BME280;44465;53.206;-6.106;2023-03-11T03:20:25;100493.28;;;19.73;44.51
58686;BME280;44465;53.206;-6.106;2023-03-11T03:22:54;100545.06;;;20.04;44.79
58686;BME280;44465;53.206;-6.106;2023-03-11T03:25:24;100571.56;;;20.09;44.59
58686;BME280;44465;53.206;-6.106;2023-03-11T03:27:50;100584.56;;;20.15;44.65
58686;BME280;44465;53.206;-6.106;2023-03-11T03:30:16;100562.22;;;20.00;44.24
58686;BME280;44465;53.206;-6.106;2023-03-11T03:32:43;100540.88;;;19.82;44.43
58686;BME280;44465;53.206;-6.106;2023-03-11T03:35:11;100557.81;;;19.99;44.52
58686;BME280;44465;53.206;-6.106;2023-03-11T03:38:03;100557.81;;;19.99;44.54
58686;BME280;44465;53.206;-6.106;2023-03-11T03:40:28;100558.59;;;20.01;44.64
58686;BME280;44465;53.206;-6.106;2023-03-11T03:42:57;100596.84;;;20.19;44.50
58686;BME280;44465;53.206;-6.106;2023-03-11T03:45:23;100590.53;;;20.20;44.44
58686;BME280;44465;53.206;-6.106;2023-03-11T03:47:51;100562.22;;;20.00;44.75
58686;BME280;44465;53.206;-6.106;2023-03-11T03:50:18;100589.66;;;20.20;44.72
58686;BME280;44465;53.206;-6.106;2023-03-11T03:52:46;100584.50;;;20.17;44.40
58686;BME280;44465;53.206;-6.106;2023-03-11T03:55:12;100537.03;;;19.88;44.48
58686;BME280;44465;53.206;-6.106;2023-03-11T03:57:38;100589.22;;;20.11;44.56
58686;BME280;44465;53.206;-6.106;2023-03-11T04:00:05;100558.59;;;20.01;44.64
58686;BME280;44465;53.206;-6.106;2023-03-11T04:02:39;100515.09;;;19.81;44.66
58686;BME280;44465;53.206;-6.106;2023-03-11T04:05:06;100522.31;;;19.79;44.29
58686;BME280;44465;53.206;-6.106;2023-03-11T04:07:35;100588.13;;;20.15;44.67
58686;BME280;44465;53.206;-6.106;2023-03-11T04:10:03;100573.44;;;20.07;44.19
58686;BME280;44465;53.206;-6.106;2023-03-11T04:12:30;100582.78;;;20.15;44.71
58686;BME280;44465;53.206;-6.106;2023-03-11T04:14:56;100505.84;;;19.71;44.34
58686;BME280;44465;53.206;-6.106;2023-03-11T04:17:22;100556.28;;;19.95;44.33
58686;BME280;44465;53.206;-6.106;2023-03-11T04:19:48;100529.41;;;19.80;44.24
58686;BME280;44465;53.206;-6.106;2023-03-11T04:22:14;100554.69;;;19.91;44.49
58686;BME280;44465;53.206;-6.106;2023-03-11T04:24:40;100552.81;;;19.93;44.58
58686;BME280;44465;53.206;-6.106;2023-03-11T04:27:05;100590.00;;;20.13;44.42
58686;BME280;44465;53.206;-6.106;2023-03-11T04:29:32;100589.31;;;20.10;44.51
58686;BME280;44465;53.206;-6.106;2023-03-11T04:31:57;100535.84;;;19.76;44.57
58686;BME280;44465;53.206;-6.106;2023-03-11T04:34:23;100564.81;;;20.02;44.22
58686;BME280;44465;53.206;-6.106;2023-03-11T04:36:53;100593.47;;;20.15;44.67
58686;BME280;44465;53.206;-6.106;2023-03-11T04:39:22;100552.66;;;19.96;44.47
58686;BME280;44465;53.206;-6.106;2023-03-11T04:41:49;100570.59;;;20.10;44.58
58686;BME280;44465;53.206;-6.106;2023-03-11T04:44:18;100519.59;;;19.81;44.55
58686;BME280;44465;53.206;-6.106;2023-03-11T04:46:44;100544.00;;;19.91;44.66
58686;BME280;44465;53.206;-6.106;2023-03-11T04:49:09;100535.09;;;19.74;44.58
58686;BME280;44465;53.206;-6.106;2023-03-11T04:51:36;100539.63;;;19.72;44.63
58686;BME280;44465;53.206;-6.106;2023-03-11T04:54:02;100602.59;;;20.11;44.55
58686;BME280;44465;53.206;-6.106;2023-03-11T04:56:29;100604.47;;;20.09;44.55
58686;BME280;44465;53.206;-6.106;2023-03-11T04:58:54;100562.13;;;19.86;44.89
58686;BME280;44465;53.206;-6.106;2023-03-11T05:01:22;100609.13;;;20.06;44.78
58686;BME280;44465;53.206;-6.106;2023-03-11T05:03:48;100567.69;;;19.81;44.58
58686;BME280;44465;53.206;-6.106;2023-03-11T05:06:15;100590.66;;;20.01;44.48
58686;BME280;44465;53.206;-6.106;2023-03-11T05:08:40;100574.97;;;19.95;44.44
58686;BME280;44465;53.206;-6.106;2023-03-11T05:11:06;100600.69;;;20.13;44.60
58686;BME280;44465;53.206;-6.106;2023-03-11T05:13:33;100598.97;;;20.12;44.57
58686;BME280;44465;53.206;-6.106;2023-03-11T05:15:59;100576.38;;;20.02;44.74
58686;BME280;44465;53.206;-6.106;2023-03-11T05:18:24;100544.25;;;19.86;44.66
58686;BME280;44465;53.206;-6.106;2023-03-11T05:20:50;100577.94;;;20.06;44.80
58686;BME280;44465;53.206;-6.106;2023-03-11T05:23:19;100582.25;;;20.09;44.35
58686;BME280;44465;53.206;-6.106;2023-03-11T05:25:45;100591.75;;;20.14;44.73
58686;BME280;44465;53.206;-6.106;2023-03-11T05:28:10;100565.84;;;19.99;44.58
58686;BME280;44465;53.206;-6.106;2023-03-11T05:30:41;100526.28;;;19.72;44.64
58686;BME280;44465;53.206;-6.106;2023-03-11T05:33:07;100545.84;;;19.90;44.50
58686;BME280;44465;53.206;-6.106;2023-03-11T05:35:34;100523.47;;;19.75;44.35
58686;BME280;44465;53.206;-6.106;2023-03-11T05:38:00;100569.03;;;20.06;44.53
58686;BME280;44465;53.206;-6.106;2023-03-11T05:40:27;100530.97;;;19.84;44.66
58686;BME280;44465;53.206;-6.106;2023-03-11T05:42:53;100567.94;;;20.10;44.57
58686;BME280;44465;53.206;-6.106;2023-03-11T05:45:19;100539.44;;;19.93;44.45
58686;BME280;44465;53.206;-6.106;2023-03-11T05:47:47;100511.19;;;19.71;44.41
58686;BME280;44465;53.206;-6.106;2023-03-11T05:50:14;100577.75;;;20.09;44.69
58686;BME280;44465;53.206;-6.106;2023-03-11T05:52:42;100517.31;;;19.73;44.38
58686;BME280;44465;53.206;-6.106;2023-03-11T05:55:08;100527.59;;;19.81;44.69
58686;BME280;44465;53.206;-6.106;2023-03-11T05:57:38;100540.41;;;19.92;44.59
58686;BME280;44465;53.206;-6.106;2023-03-11T06:00:06;100561.13;;;20.04;44.85
58686;BME280;44465;53.206;-6.106;2023-03-11T06:02:39;100548.00;;;19.99;44.36
58686;BME280;44465;53.206;-6.106;2023-03-11T06:05:07;100514.56;;;19.75;44.58
58686;BME280;44465;53.206;-6.106;2023-03-11T06:07:35;100539.44;;;19.93;44.64
58686;BME280;44465;53.206;-6.106;2023-03-11T06:10:02;100536.78;;;19.93;44.66
58686;BME280;44465;53.206;-6.106;2023-03-11T06:12:33;100512.25;;;19.84;44.31
58686;BME280;44465;53.206;-6.106;2023-03-11T06:15:21;100541.53;;;20.04;44.71
58686;BME280;44465;53.206;-6.106;2023-03-11T06:17:47;100536.91;;;20.07;44.71
58686;BME280;44465;53.206;-6.106;2023-03-11T06:20:13;100476.47;;;19.71;44.51
58686;BME280;44465;53.206;-6.106;2023-03-11T06:22:39;100466.81;;;19.68;44.42
58686;BME280;44465;53.206;-6.106;2023-03-11T06:25:05;100506.84;;;19.86;44.69
58686;BME280;44465;53.206;-6.106;2023-03-11T06:27:32;100533.34;;;20.07;44.78
58686;BME280;44465;53.206;-6.106;2023-03-11T06:29:57;100487.69;;;19.78;44.69
58686;BME280;44465;53.206;-6.106;2023-03-11T06:32:24;100484.47;;;19.71;44.57
58686;BME280;44465;53.206;-6.106;2023-03-11T06:34:51;100499.91;;;19.82;44.55
58686;BME280;44465;53.206;-6.106;2023-03-11T06:37:18;100503.94;;;19.91;44.89
58686;BME280;44465;53.206;-6.106;2023-03-11T06:39:43;100522.13;;;20.00;44.58
58686;BME280;44465;53.206;-6.106;2023-03-11T06:42:13;100484.91;;;19.79;44.67
58686;BME280;44465;53.206;-6.106;2023-03-11T06:44:40;100512.88;;;19.90;44.61
58686;BME280;44465;53.206;-6.106;2023-03-11T06:47:06;100518.66;;;19.98;44.58
58686;BME280;44465;53.206;-6.106;2023-03-11T06:49:32;100466.13;;;19.65;44.92
58686;BME280;44465;53.206;-6.106;2023-03-11T06:51:57;100452.94;;;19.62;44.37
58686;BME280;44465;53.206;-6.106;2023-03-11T06:54:23;100513.16;;;20.01;44.89
58686;BME280;44465;53.206;-6.106;2023-03-11T06:56:49;100457.13;;;19.66;44.36
58686;BME280;44465;53.206;-6.106;2023-03-11T06:59:15;100453.72;;;19.64;44.71
58686;BME280;44465;53.206;-6.106;2023-03-11T07:01:40;100508.44;;;20.06;44.78
58686;BME280;44465;53.206;-6.106;2023-03-11T07:04:09;100519.13;;;20.06;44.61
58686;BME280;44465;53.206;-6.106;2023-03-11T07:06:36;100519.13;;;20.06;44.47
58686;BME280;44465;53.206;-6.106;2023-03-11T07:09:07;100518.50;;;20.01;44.61
58686;BME280;44465;53.206;-6.106;2023-03-11T07:11:34;100525.84;;;19.97;44.97
58686;BME280;44465;53.206;-6.106;2023-03-11T07:14:07;100524.72;;;20.02;44.50
58686;BME280;44465;53.206;-6.106;2023-03-11T07:16:37;100515.69;;;20.04;44.55
58686;BME280;44465;53.206;-6.106;2023-03-11T07:19:08;100506.50;;;19.92;44.73
58686;BME280;44465;53.206;-6.106;2023-03-11T07:21:34;100515.69;;;20.04;44.74
58686;BME280;44465;53.206;-6.106;2023-03-11T07:24:01;100525.41;;;20.05;44.59
58686;BME280;44465;53.206;-6.106;2023-03-11T07:26:27;100504.56;;;19.96;44.25
58686;BME280;44465;53.206;-6.106;2023-03-11T07:28:54;100515.56;;;20.06;44.46
58686;BME280;44465;53.206;-6.106;2023-03-11T07:31:29;100508.44;;;20.06;44.31
58686;BME280;44465;53.206;-6.106;2023-03-11T07:33:57;100508.44;;;20.06;44.58
58686;BME280;44465;53.206;-6.106;2023-03-11T07:36:23;100498.06;;;20.00;44.42
58686;BME280;44465;53.206;-6.106;2023-03-11T07:39:01;100508.59;;;20.03;44.32
58686;BME280;44465;53.206;-6.106;2023-03-11T07:41:29;100491.94;;;19.98;44.70
58686;BME280;44465;53.206;-6.106;2023-03-11T07:43:57;100507.03;;;19.99;44.48
58686;BME280;44465;53.206;-6.106;2023-03-11T07:46:25;100513.00;;;20.04;44.66
58686;BME280;44465;53.206;-6.106;2023-03-11T07:48:51;100512.91;;;20.06;44.46
58686;BME280;44465;53.206;-6.106;2023-03-11T07:51:28;100492.38;;;19.90;44.86
58686;BME280;44465;53.206;-6.106;2023-03-11T07:53:56;100493.06;;;19.94;44.52
58686;BME280;44465;53.206;-6.106;2023-03-11T07:56:24;100484.44;;;19.89;44.44
58686;BME280;44465;53.206;-6.106;2023-03-11T07:58:51;100464.41;;;19.80;44.59
58686;BME280;44465;53.206;-6.106;2023-03-11T08:01:20;100502.56;;;19.99;44.50
58686;BME280;44465;53.206;-6.106;2023-03-11T08:03:47;100449.13;;;19.66;44.33
58686;BME280;44465;53.206;-6.106;2023-03-11T08:06:22;100476.63;;;19.86;44.36
58686;BME280;44465;53.206;-6.106;2023-03-11T08:08:49;100495.50;;;19.98;44.35
58686;BME280;44465;53.206;-6.106;2023-03-11T08:11:15;100503.25;;;20.03;44.40
58686;BME280;44465;53.206;-6.106;2023-03-11T08:13:42;100471.41;;;19.82;44.32
58686;BME280;44465;53.206;-6.106;2023-03-11T08:16:11;100514.72;;;20.05;44.41
58686;BME280;44465;53.206;-6.106;2023-03-11T08:18:37;100494.63;;;19.98;44.35
58686;BME280;44465;53.206;-6.106;2023-03-11T08:21:22;100451.47;;;19.72;44.47
58686;BME280;44465;53.206;-6.106;2023-03-11T08:23:49;100464.16;;;19.84;44.65
58686;BME280;44465;53.206;-6.106;2023-03-11T08:26:17;100454.59;;;19.80;44.58
58686;BME280;44465;53.206;-6.106;2023-03-11T08:28:43;100498.25;;;19.97;44.86
58686;BME280;44465;53.206;-6.106;2023-03-11T08:31:29;100486.84;;;19.93;44.65
58686;BME280;44465;53.206;-6.106;2023-03-11T08:33:59;100490.94;;;20.01;44.56
58686;BME280;44465;53.206;-6.106;2023-03-11T08:36:26;100465.66;;;19.90;44.42
58686;BME280;44465;53.206;-6.106;2023-03-11T08:38:52;100477.31;;;20.05;44.61
58686;BME280;44465;53.206;-6.106;2023-03-11T08:41:18;100474.00;;;20.00;44.30
58686;BME280;44465;53.206;-6.106;2023-03-11T08:43:44;100481.72;;;20.06;44.27
58686;BME280;44465;53.206;-6.106;2023-03-11T08:46:16;100417.94;;;19.66;44.33
58686;BME280;44465;53.206;-6.106;2023-03-11T08:48:42;100477.72;;;19.97;44.72
58686;BME280;44465;53.206;-6.106;2023-03-11T08:51:10;100452.22;;;19.92;44.63
58686;BME280;44465;53.206;-6.106;2023-03-11T08:53:36;100437.44;;;19.84;44.37
58686;BME280;44465;53.206;-6.106;2023-03-11T08:56:02;100448.69;;;19.91;44.45
58686;BME280;44465;53.206;-6.106;2023-03-11T08:58:28;100406.22;;;19.69;44.31
58686;BME280;44465;53.206;-6.106;2023-03-11T09:00:54;100472.13;;;20.02;44.57
58686;BME280;44465;53.206;-6.106;2023-03-11T09:03:19;100467.72;;;20.01;44.35
58686;BME280;44465;53.206;-6.106;2023-03-11T09:05:45;100405.44;;;19.67;44.63
58686;BME280;44465;53.206;-6.106;2023-03-11T09:08:11;100451.84;;;19.98;44.62
58686;BME280;44465;53.206;-6.106;2023-03-11T09:10:36;100451.00;;;19.97;44.65
58686;BME280;44465;53.206;-6.106;2023-03-11T09:13:02;100455.13;;;20.03;44.43
58686;BME280;44465;53.206;-6.106;2023-03-11T09:15:27;100446.19;;;20.04;44.32
58686;BME280;44465;53.206;-6.106;2023-03-11T09:17:53;100398.03;;;19.72;44.27
58686;BME280;44465;53.206;-6.106;2023-03-11T09:20:18;100397.34;;;19.68;44.54
58686;BME280;44465;53.206;-6.106;2023-03-11T09:22:45;100429.34;;;19.86;44.55
58686;BME280;44465;53.206;-6.106;2023-03-11T09:25:12;100444.81;;;19.97;44.39
58686;BME280;44465;53.206;-6.106;2023-03-11T09:27:37;100398.81;;;19.74;44.48
58686;BME280;44465;53.206;-6.106;2023-03-11T09:30:04;100441.25;;;19.96;44.74
58686;BME280;44465;53.206;-6.106;2023-03-11T09:32:29;100448.91;;;20.03;44.53
58686;BME280;44465;53.206;-6.106;2023-03-11T09:34:55;100403.22;;;19.75;44.83
58686;BME280;44465;53.206;-6.106;2023-03-11T09:37:22;100385.78;;;19.68;44.68
58686;BME280;44465;53.206;-6.106;2023-03-11T09:39:47;100402.88;;;19.81;44.60
58686;BME280;44465;53.206;-6.106;2023-03-11T09:42:19;100398.31;;;19.83;44.58
58686;BME280;44465;53.206;-6.106;2023-03-11T09:44:53;100451.16;;;20.10;44.67
58686;BME280;44465;53.206;-6.106;2023-03-11T09:55:36;100442.34;;;20.08;44.60
58686;BME280;44465;53.206;-6.106;2023-03-11T09:58:11;100431.94;;;20.04;44.67
58686;BME280;44465;53.206;-6.106;2023-03-11T10:00:37;100376.66;;;19.72;44.66
58686;BME280;44465;53.206;-6.106;2023-03-11T10:03:06;100426.31;;;20.08;44.52
58686;BME280;44465;53.206;-6.106;2023-03-11T10:05:37;100372.00;;;19.76;44.48
58686;BME280;44465;53.206;-6.106;2023-03-11T10:10:56;100351.94;;;19.68;44.61
58686;BME280;44465;53.206;-6.106;2023-03-11T10:13:34;100406.25;;;20.01;44.66
58686;BME280;44465;53.206;-6.106;2023-03-11T10:21:19;100419.84;;;20.12;44.53
58686;BME280;44465;53.206;-6.106;2023-03-11T10:26:28;100401.69;;;20.03;44.60
58686;BME280;44465;53.206;-6.106;2023-03-11T10:29:13;100418.91;;;20.13;44.43
58686;BME280;44465;53.206;-6.106;2023-03-11T10:34:25;100370.81;;;19.81;44.68
58686;BME280;44465;53.206;-6.106;2023-03-11T10:37:04;100398.13;;;20.03;44.61
58686;BME280;44465;53.206;-6.106;2023-03-11T10:39:34;100375.66;;;19.91;44.66
58686;BME280;44465;53.206;-6.106;2023-03-11T10:42:02;100331.41;;;19.69;44.87
58686;BME280;44465;53.206;-6.106;2023-03-11T10:44:39;100367.63;;;19.91;44.56
58686;BME280;44465;53.206;-6.106;2023-03-11T10:47:10;100350.53;;;19.77;44.73
58686;BME280;44465;53.206;-6.106;2023-03-11T10:49:39;100403.03;;;20.10;44.89
58686;BME280;44465;53.206;-6.106;2023-03-11T10:52:05;100352.47;;;19.75;44.52
58686;BME280;44465;53.206;-6.106;2023-03-11T10:54:34;100370.63;;;19.84;44.57
58686;BME280;44465;53.206;-6.106;2023-03-11T10:59:50;100369.72;;;19.86;44.85
58686;BME280;44465;53.206;-6.106;2023-03-11T11:02:26;100415.38;;;20.13;44.87
58686;BME280;44465;53.206;-6.106;2023-03-11T11:07:44;100401.69;;;20.03;44.81
58686;BME280;44465;53.206;-6.106;2023-03-11T11:10:19;100401.25;;;20.11;44.69
58686;BME280;44465;53.206;-6.106;2023-03-11T11:12:55;100390.44;;;20.12;44.70
58686;BME280;44465;53.206;-6.106;2023-03-11T11:15:35;100367.72;;;20.05;44.51
58686;BME280;44465;53.206;-6.106;2023-03-11T11:18:13;100362.00;;;20.11;44.71
58686;BME280;44465;53.206;-6.106;2023-03-11T11:23:49;100390.63;;;20.09;44.72
58686;BME280;44465;53.206;-6.106;2023-03-11T11:26:23;100359.09;;;20.00;44.63
58686;BME280;44465;53.206;-6.106;2023-03-11T11:29:22;100369.44;;;20.06;44.86
58686;BME280;44465;53.206;-6.106;2023-03-11T11:31:47;100372.13;;;20.06;44.77
58686;BME280;44465;53.206;-6.106;2023-03-11T11:34:33;100368.81;;;20.01;44.61
58686;BME280;44465;53.206;-6.106;2023-03-11T11:37:03;100374.78;;;20.06;44.83
58686;BME280;44465;53.206;-6.106;2023-03-11T11:39:35;100374.69;;;20.08;44.94
58686;BME280;44465;53.206;-6.106;2023-03-11T11:42:05;100372.84;;;20.08;44.73
58686;BME280;44465;53.206;-6.106;2023-03-11T11:44:33;100343.59;;;19.91;44.53
58686;BME280;44465;53.206;-6.106;2023-03-11T11:47:03;100369.59;;;20.03;44.53
58686;BME280;44465;53.206;-6.106;2023-03-11T11:49:32;100363.91;;;20.09;44.83
58686;BME280;44465;53.206;-6.106;2023-03-11T11:52:05;100371.84;;;20.11;44.97
58686;BME280;44465;53.206;-6.106;2023-03-11T11:57:10;100360.28;;;20.10;44.78
58686;BME280;44465;53.206;-6.106;2023-03-11T11:59:36;100310.28;;;19.80;44.81
58686;BME280;44465;53.206;-6.106;2023-03-11T12:10:25;100348.91;;;20.07;45.08
58686;BME280;44465;53.206;-6.106;2023-03-11T12:19:12;100330.88;;;20.10;44.82
58686;BME280;44465;53.206;-6.106;2023-03-11T12:22:08;100323.06;;;20.07;44.94
58686;BME280;44465;53.206;-6.106;2023-03-11T12:27:26;100311.03;;;20.14;45.02
58686;BME280;44465;53.206;-6.106;2023-03-11T12:29:58;100301.75;;;20.06;44.72
58686;BME280;44465;53.206;-6.106;2023-03-11T12:32:39;100291.72;;;20.09;44.82
58686;BME280;44465;53.206;-6.106;2023-03-11T12:35:19;100292.41;;;20.13;44.73
58686;BME280;44465;53.206;-6.106;2023-03-11T12:38:15;100273.69;;;20.13;44.83
58686;BME280;44465;53.206;-6.106;2023-03-11T12:40:46;100269.22;;;20.13;44.86
58686;BME280;44465;53.206;-6.106;2023-03-11T12:46:11;100259.25;;;20.01;44.80
58686;BME280;44465;53.206;-6.106;2023-03-11T12:48:44;100265.59;;;20.14;44.79
58686;BME280;44465;53.206;-6.106;2023-03-11T12:53:51;100246.78;;;20.16;45.01
58686;BME280;44465;53.206;-6.106;2023-03-11T13:01:31;100210.19;;;20.02;44.83
58686;BME280;44465;53.206;-6.106;2023-03-11T13:12:42;100228.16;;;20.14;44.93
58686;BME280;44465;53.206;-6.106;2023-03-11T13:23:21;100210.28;;;20.15;44.76
58686;BME280;44465;53.206;-6.106;2023-03-11T13:34:09;100191.47;;;20.02;45.03
58686;BME280;44465;53.206;-6.106;2023-03-11T13:41:42;100186.34;;;20.13;44.84
58686;BME280;44465;53.206;-6.106;2023-03-11T13:46:46;100188.06;;;20.14;45.07
58686;BME280;44465;53.206;-6.106;2023-03-11T13:51:42;100176.31;;;20.17;45.08
58686;BME280;44465;53.206;-6.106;2023-03-11T13:54:21;100170.03;;;20.18;44.75
58686;BME280;44465;53.206;-6.106;2023-03-11T13:57:01;100169.44;;;20.13;44.98
58686;BME280;44465;53.206;-6.106;2023-03-11T13:59:31;100132.88;;;19.99;44.75
58686;BME280;44465;53.206;-6.106;2023-03-11T14:04:34;100156.75;;;20.17;44.98
58686;BME280;44465;53.206;-6.106;2023-03-11T14:07:12;100139.84;;;20.16;44.92
58686;BME280;44465;53.206;-6.106;2023-03-11T14:09:38;100136.69;;;20.09;45.03
58686;BME280;44465;53.206;-6.106;2023-03-11T14:12:05;100108.25;;;19.94;45.02
58686;BME280;44465;53.206;-6.106;2023-03-11T14:14:49;100131.44;;;20.08;44.90
58686;BME280;44465;53.206;-6.106;2023-03-11T14:17:19;100139.19;;;20.12;45.08
58686;BME280;44465;53.206;-6.106;2023-03-11T14:20:25;100137.56;;;20.10;45.14
58686;BME280;44465;53.206;-6.106;2023-03-11T14:22:53;100117.59;;;20.01;45.13
58686;BME280;44465;53.206;-6.106;2023-03-11T14:25:26;100116.25;;;20.08;44.97
58686;BME280;44465;53.206;-6.106;2023-03-11T14:27:56;100107.28;;;20.09;44.92
58686;BME280;44465;53.206;-6.106;2023-03-11T14:30:31;100124.69;;;20.17;44.87
58686;BME280;44465;53.206;-6.106;2023-03-11T14:33:20;100108.22;;;20.08;44.92
58686;BME280;44465;53.206;-6.106;2023-03-11T14:35:57;100121.06;;;20.18;45.09
58686;BME280;44465;53.206;-6.106;2023-03-11T14:38:29;100085.25;;;20.06;45.20